createdAt,value
2019-02-23T00:02:13.633Z,100.00
2019-02-23T00:04:44.397Z,100.00
2019-02-23T00:07:15.177Z,100.00
2019-02-23T00:09:45.947Z,100.00
2019-02-23T00:12:16.700Z,100.00
2019-02-23T00:14:47.481Z,100.00
2019-02-23T00:17:18.227Z,100.00
2019-02-23T00:19:49.002Z,100.00
2019-02-23T00:22:19.759Z,100.00
2019-02-23T00:24:50.552Z,100.00
2019-02-23T00:27:21.312Z,100.00
2019-02-23T00:29:52.166Z,100.00
2019-02-23T00:32:22.946Z,100.00
2019-02-23T00:34:53.713Z,100.00
2019-02-23T00:37:24.484Z,100.00
2019-02-23T00:39:55.237Z,100.00
2019-02-23T00:42:26.009Z,100.00
2019-02-23T00:44:56.766Z,100.00
2019-02-23T00:47:27.534Z,100.00
2019-02-23T00:49:58.295Z,100.00
2019-02-23T00:52:29.065Z,100.00
2019-02-23T00:54:59.833Z,100.00
2019-02-23T00:57:30.612Z,100.00
2019-02-23T01:00:02.868Z,100.00
2019-02-23T01:02:33.631Z,100.00
2019-02-23T01:05:04.484Z,100.00
2019-02-23T01:07:35.346Z,100.00
2019-02-23T01:10:08.312Z,100.00
2019-02-23T01:12:39.083Z,100.00
2019-02-23T01:15:09.842Z,100.00
2019-02-23T01:17:40.706Z,100.00
2019-02-23T01:20:11.473Z,100.00
2019-02-23T01:22:42.254Z,100.00
2019-02-23T01:25:13.021Z,100.00
2019-02-23T01:27:43.777Z,100.00
2019-02-23T01:30:14.536Z,100.00
2019-02-23T01:32:45.315Z,100.00
2019-02-23T01:35:16.065Z,100.00
2019-02-23T01:37:46.838Z,100.00
2019-02-23T01:40:17.600Z,100.00
2019-02-23T01:42:48.367Z,100.00
2019-02-23T01:45:19.246Z,100.00
2019-02-23T01:47:50.016Z,100.00
2019-02-23T01:50:20.780Z,100.00
2019-02-23T01:52:51.551Z,100.00
2019-02-23T01:55:22.326Z,100.00
2019-02-23T01:57:53.106Z,100.00
2019-02-23T02:00:24.362Z,100.00
2019-02-23T02:02:55.136Z,100.00
2019-02-23T02:05:25.891Z,100.00
2019-02-23T02:07:56.763Z,100.00
2019-02-23T02:10:27.644Z,100.00
2019-02-23T02:12:58.422Z,100.00
2019-02-23T02:15:29.306Z,100.00
2019-02-23T02:18:00.080Z,100.00
2019-02-23T02:20:31.043Z,100.00
2019-02-23T02:23:01.816Z,100.00
2019-02-23T02:25:32.570Z,100.00
2019-02-23T02:28:03.339Z,100.00
2019-02-23T02:30:34.206Z,100.00
2019-02-23T02:33:05.005Z,100.00
2019-02-23T02:35:35.759Z,100.00
2019-02-23T02:38:06.524Z,100.00
2019-02-23T02:40:37.282Z,100.00
2019-02-23T02:43:08.050Z,100.00
2019-02-23T02:45:38.816Z,100.00
2019-02-23T02:48:09.583Z,100.00
2019-02-23T02:50:40.342Z,100.00
2019-02-23T02:53:11.110Z,100.00
2019-02-23T02:55:41.867Z,100.00
2019-02-23T02:58:12.641Z,100.00
2019-02-23T03:00:43.406Z,100.00
2019-02-23T03:03:14.231Z,100.00
2019-02-23T03:05:44.983Z,100.00
2019-02-23T03:08:15.744Z,100.00
2019-02-23T03:10:46.501Z,100.00
2019-02-23T03:13:17.275Z,100.00
2019-02-23T03:15:48.053Z,100.00
2019-02-23T03:18:18.823Z,100.00
2019-02-23T03:20:49.595Z,100.00
2019-02-23T03:23:20.363Z,100.00
2019-02-23T03:25:51.124Z,100.00
2019-02-23T03:28:21.903Z,100.00
2019-02-23T03:30:52.671Z,100.00
2019-02-23T03:33:23.432Z,100.00
2019-02-23T03:35:54.194Z,100.00
2019-02-23T03:38:24.973Z,100.00
2019-02-23T03:40:55.720Z,100.00
2019-02-23T03:43:26.512Z,100.00
2019-02-23T03:45:57.276Z,100.00
2019-02-23T03:48:28.048Z,100.00
2019-02-23T03:50:58.893Z,100.00
2019-02-23T03:53:29.655Z,100.00
2019-02-23T03:56:00.412Z,100.00
2019-02-23T03:58:31.199Z,100.00
2019-02-23T04:01:01.972Z,100.00
2019-02-23T04:03:32.790Z,100.00
2019-02-23T04:06:03.565Z,100.00
2019-02-23T04:08:34.338Z,100.00
2019-02-23T04:11:05.099Z,100.00
2019-02-23T04:13:35.861Z,100.00
2019-02-23T04:16:06.619Z,100.00
2019-02-23T04:18:37.501Z,100.00
2019-02-23T04:21:08.279Z,100.00
2019-02-23T04:23:39.048Z,100.00
2019-02-23T04:26:09.809Z,100.00
2019-02-23T04:28:40.592Z,100.00
2019-02-23T04:31:11.354Z,100.00
2019-02-23T04:33:42.116Z,100.00
2019-02-23T04:36:12.871Z,100.00
2019-02-23T04:38:43.654Z,100.00
2019-02-23T04:41:14.425Z,100.00
2019-02-23T04:43:45.191Z,100.00
2019-02-23T04:46:15.976Z,100.00
2019-02-23T04:48:46.751Z,100.00
2019-02-23T04:51:17.820Z,100.00
2019-02-23T04:53:48.597Z,100.00
2019-02-23T04:56:19.371Z,100.00
2019-02-23T04:58:50.151Z,100.00
2019-02-23T05:01:20.906Z,100.00
2019-02-23T05:03:51.681Z,100.00
2019-02-23T05:06:22.434Z,100.00
2019-02-23T05:08:53.207Z,100.00
2019-02-23T05:11:23.970Z,100.00
2019-02-23T05:13:54.743Z,100.00
2019-02-23T05:16:25.517Z,100.00
2019-02-23T05:18:56.294Z,100.00
2019-02-23T05:21:27.148Z,100.00
2019-02-23T05:23:57.925Z,100.00
2019-02-23T05:26:28.690Z,100.00
2019-02-23T05:28:59.452Z,100.00
2019-02-23T05:31:30.209Z,100.00
2019-02-23T05:34:00.978Z,100.00
2019-02-23T05:36:31.739Z,100.00
2019-02-23T05:39:03.810Z,100.00
2019-02-23T05:41:34.588Z,100.00
2019-02-23T05:44:05.350Z,100.00
2019-02-23T05:46:36.111Z,100.00
2019-02-23T05:49:06.895Z,100.00
2019-02-23T05:51:38.874Z,100.00
2019-02-23T05:54:10.047Z,100.00
2019-02-23T05:56:40.810Z,100.00
2019-02-23T05:59:11.598Z,100.00
2019-02-23T06:01:42.363Z,100.00
2019-02-23T06:04:13.135Z,100.00
2019-02-23T06:06:43.903Z,100.00
2019-02-23T06:09:14.670Z,100.00
2019-02-23T06:11:45.425Z,100.00
2019-02-23T06:14:16.198Z,100.00
2019-02-23T06:16:46.957Z,100.00
2019-02-23T06:19:17.731Z,100.00
2019-02-23T06:21:53.887Z,100.00
2019-02-23T06:24:21.172Z,100.00
2019-02-23T06:26:51.961Z,100.00
2019-02-23T06:29:22.723Z,100.00
2019-02-23T06:31:53.483Z,100.00
2019-02-23T06:34:24.260Z,100.00
2019-02-23T06:36:55.039Z,100.00
2019-02-23T06:39:25.824Z,100.00
2019-02-23T06:41:56.617Z,100.00
2019-02-23T06:44:27.378Z,100.00
2019-02-23T06:46:58.257Z,100.00
2019-02-23T06:49:29.012Z,100.00
2019-02-23T06:52:04.303Z,100.00
2019-02-23T06:54:32.478Z,100.00
2019-02-23T06:57:03.269Z,100.00
2019-02-23T06:59:34.091Z,100.00
2019-02-23T07:02:04.887Z,100.00
2019-02-23T07:04:35.684Z,100.00
2019-02-23T07:07:06.479Z,100.00
2019-02-23T07:09:37.245Z,100.00
2019-02-23T07:12:08.010Z,100.00
2019-02-23T07:14:38.774Z,100.00
2019-02-23T07:17:09.567Z,100.00
2019-02-23T07:19:40.331Z,100.00
2019-02-23T07:22:15.488Z,100.00
2019-02-23T07:24:43.767Z,100.00
2019-02-23T07:27:14.554Z,100.00
2019-02-23T07:29:45.320Z,100.00
2019-02-23T07:32:16.103Z,100.00
2019-02-23T07:34:46.854Z,100.00
2019-02-23T07:37:17.643Z,100.00
2019-02-23T07:39:48.403Z,100.00
2019-02-23T07:42:19.170Z,100.00
2019-02-23T07:44:49.964Z,100.00
2019-02-23T07:47:20.722Z,100.00
2019-02-23T07:49:51.483Z,100.00
2019-02-23T07:52:26.275Z,100.00
2019-02-23T07:54:54.923Z,100.00
2019-02-23T07:57:26.271Z,100.00
2019-02-23T07:59:56.995Z,100.00
2019-02-23T08:02:27.759Z,100.00
2019-02-23T08:04:58.534Z,100.00
2019-02-23T08:07:29.326Z,100.00
2019-02-23T08:10:00.221Z,100.00
2019-02-23T08:12:31.074Z,100.00
2019-02-23T08:15:02.943Z,100.00
2019-02-23T08:17:33.730Z,100.00
2019-02-23T08:20:10.158Z,100.00
2019-02-23T08:22:40.935Z,100.00
2019-02-23T08:25:13.097Z,100.00
2019-02-23T08:27:43.895Z,100.00
2019-02-23T08:30:15.660Z,99.46
2019-02-23T08:32:46.434Z,92.65
2019-02-23T08:35:17.194Z,91.83
2019-02-23T08:37:47.978Z,97.95
2019-02-23T08:40:18.743Z,96.69
2019-02-23T08:42:49.513Z,94.61
2019-02-23T08:45:20.273Z,88.66
2019-02-23T08:47:51.060Z,85.26
2019-02-23T08:50:21.822Z,83.28
2019-02-23T08:52:52.607Z,83.18
2019-02-23T08:55:23.371Z,88.22
2019-02-23T08:57:54.144Z,85.54
2019-02-23T09:00:25.006Z,84.70
2019-02-23T09:02:55.775Z,81.92
2019-02-23T09:05:26.640Z,79.17
2019-02-23T09:07:57.418Z,77.44
2019-02-23T09:10:28.176Z,82.24
2019-02-23T09:12:58.949Z,85.05
2019-02-23T09:15:29.725Z,87.46
2019-02-23T09:18:00.516Z,84.96
2019-02-23T09:20:31.295Z,82.27
2019-02-23T09:23:02.065Z,82.05
2019-02-23T09:25:32.915Z,74.26
2019-02-23T09:28:03.682Z,74.57
2019-02-23T09:30:34.459Z,76.10
2019-02-23T09:33:05.227Z,78.82
2019-02-23T09:35:36.008Z,73.59
2019-02-23T09:38:06.794Z,73.90
2019-02-23T09:40:37.573Z,74.41
2019-02-23T09:43:08.363Z,75.93
2019-02-23T09:45:39.122Z,77.25
2019-02-23T09:48:09.894Z,75.76
2019-02-23T09:50:40.652Z,74.25
2019-02-23T09:53:11.717Z,73.34
2019-02-23T09:55:42.502Z,73.74
2019-02-23T09:58:13.292Z,71.55
2019-02-23T10:00:44.056Z,70.04
2019-02-23T10:03:14.859Z,63.40
2019-02-23T10:05:45.624Z,64.63
2019-02-23T10:08:16.399Z,62.51
2019-02-23T10:10:47.161Z,63.65
2019-02-23T10:13:17.921Z,63.79
2019-02-23T10:15:48.691Z,65.50
2019-02-23T10:18:19.468Z,64.49
2019-02-23T10:20:50.275Z,64.63
2019-02-23T10:23:22.295Z,67.89
2019-02-23T10:25:53.260Z,66.79
2019-02-23T10:28:24.032Z,65.55
2019-02-23T10:30:54.809Z,63.80
2019-02-23T10:33:25.579Z,60.90
2019-02-23T10:35:56.644Z,61.94
2019-02-23T10:38:27.445Z,65.10
2019-02-23T10:40:59.843Z,60.49
2019-02-23T10:43:30.681Z,60.39
2019-02-23T10:46:01.447Z,62.72
2019-02-23T10:48:32.217Z,62.11
2019-02-23T10:51:04.003Z,61.82
2019-02-23T10:53:34.778Z,59.45
2019-02-23T10:56:05.740Z,54.69
2019-02-23T10:58:36.543Z,52.76
2019-02-23T11:01:07.313Z,52.76
2019-02-23T11:03:38.081Z,48.90
2019-02-23T11:06:10.788Z,53.54
2019-02-23T11:08:41.566Z,53.61
2019-02-23T11:11:12.340Z,53.33
2019-02-23T11:13:43.119Z,54.11
2019-02-23T11:16:13.878Z,52.26
2019-02-23T11:18:44.660Z,45.86
2019-02-23T11:21:15.440Z,49.76
2019-02-23T15:15:39.119Z,27.81
2019-02-23T15:18:19.507Z,35.43
2019-02-23T15:21:06.430Z,26.40
2019-02-23T15:23:46.939Z,32.42
2019-02-23T15:26:33.384Z,31.22
2019-02-23T15:29:11.174Z,31.91
2019-02-23T15:32:00.403Z,32.24
2019-02-23T15:34:57.697Z,34.69
2019-02-23T15:37:47.125Z,37.88
2019-02-23T15:40:27.799Z,40.27
2019-02-23T15:43:08.147Z,40.91
2019-02-23T15:45:48.931Z,39.95
2019-02-23T15:48:44.769Z,40.92
2019-02-23T15:51:15.511Z,41.61
2019-02-23T15:53:46.260Z,39.50
2019-02-23T15:56:17.031Z,40.53
2019-02-23T15:58:47.779Z,43.00
2019-02-23T16:01:18.596Z,40.81
2019-02-23T16:03:49.357Z,40.20
2019-02-23T16:06:23.185Z,41.48
2019-02-23T16:08:53.943Z,44.93
2019-02-23T16:11:24.704Z,46.75
2019-02-23T16:13:55.475Z,47.66
2019-02-23T16:16:26.250Z,50.52
2019-02-23T16:18:57.047Z,51.07
2019-02-23T16:21:27.825Z,49.31
2019-02-23T16:23:58.831Z,50.63
2019-02-23T16:26:29.599Z,51.78
2019-02-23T16:29:00.354Z,54.58
2019-02-23T16:31:31.121Z,55.73
2019-02-23T16:34:01.875Z,54.46
2019-02-23T16:36:32.644Z,51.66
2019-02-23T16:39:07.431Z,52.91
2019-02-23T16:41:38.333Z,51.36
2019-02-23T16:44:09.094Z,50.86
2019-02-23T16:46:39.869Z,50.22
2019-02-23T16:49:10.627Z,51.30
2019-02-23T16:51:41.443Z,52.26
2019-02-23T16:54:12.222Z,52.70
2019-02-23T16:56:42.980Z,55.39
2019-02-23T16:59:13.774Z,56.02
2019-02-23T17:01:44.523Z,54.51
2019-02-23T17:04:15.292Z,54.22
2019-02-23T17:06:46.068Z,55.92
2019-02-23T17:09:16.850Z,56.65
2019-02-23T17:11:47.612Z,57.50
2019-02-23T17:14:18.381Z,58.07
2019-02-23T17:16:49.134Z,59.32
2019-02-23T17:19:19.920Z,59.52
2019-02-23T17:21:50.678Z,60.50
2019-02-23T17:24:21.448Z,61.13
2019-02-23T17:26:52.230Z,60.46
2019-02-23T17:29:23.021Z,61.36
2019-02-23T17:31:53.777Z,61.89
2019-02-23T17:34:24.538Z,62.26
2019-02-23T17:36:55.324Z,62.93
2019-02-23T17:39:26.099Z,63.87
2019-02-23T17:41:56.859Z,64.03
2019-02-23T17:44:27.630Z,64.50
2019-02-23T17:46:58.383Z,64.73
2019-02-23T17:49:29.170Z,64.95
2019-02-23T17:52:00.037Z,66.74
2019-02-23T17:54:30.829Z,67.29
2019-02-23T17:57:01.578Z,67.43
2019-02-23T17:59:32.369Z,67.04
2019-02-23T18:02:03.841Z,66.87
2019-02-23T18:04:34.613Z,69.03
2019-02-23T18:07:05.386Z,70.63
2019-02-23T18:09:36.173Z,72.67
2019-02-23T18:12:06.934Z,70.80
2019-02-23T18:14:37.698Z,70.79
2019-02-23T18:17:08.460Z,71.54
2019-02-23T18:19:39.224Z,71.40
2019-02-23T18:22:09.997Z,70.78
2019-02-23T18:24:40.782Z,73.92
2019-02-23T18:27:11.533Z,76.17
2019-02-23T18:29:42.294Z,78.79
2019-02-23T18:32:13.049Z,76.66
2019-02-23T18:34:43.973Z,73.94
2019-02-23T18:37:15.002Z,74.27
2019-02-23T18:39:45.772Z,75.03
2019-02-23T18:42:16.535Z,76.16
2019-02-23T18:44:47.325Z,79.19
2019-02-23T18:47:18.093Z,76.30
2019-02-23T18:49:48.947Z,75.85
2019-02-23T18:52:19.700Z,77.87
2019-02-23T18:54:50.489Z,78.20
2019-02-23T18:57:21.256Z,77.35
2019-02-23T18:59:52.034Z,79.87
2019-02-23T19:02:22.805Z,82.48
2019-02-23T19:04:53.571Z,77.56
2019-02-23T19:07:24.323Z,74.39
2019-02-23T19:09:55.113Z,76.52
2019-02-23T19:12:25.867Z,79.03
2019-02-23T19:14:56.649Z,78.11
2019-02-23T19:17:27.425Z,77.07
2019-02-23T19:19:58.194Z,74.57
2019-02-23T19:22:28.952Z,72.46
2019-02-23T19:24:59.733Z,70.37
2019-02-23T19:27:30.504Z,71.75
2019-02-23T19:30:01.279Z,73.60
2019-02-23T19:32:32.034Z,72.83
2019-02-23T19:35:04.721Z,73.41
2019-02-23T19:37:35.494Z,73.32
2019-02-23T19:40:07.768Z,74.08
2019-02-23T19:42:38.529Z,75.15
2019-02-23T19:45:10.391Z,76.99
2019-02-23T19:47:41.156Z,75.87
2019-02-23T19:50:18.213Z,75.39
2019-02-23T19:52:48.971Z,76.39
2019-02-23T19:55:19.758Z,77.85
2019-02-23T19:57:50.516Z,77.83
2019-02-23T20:00:21.290Z,76.92
2019-02-23T20:02:52.069Z,78.71
2019-02-23T20:05:22.838Z,77.11
2019-02-23T20:07:53.589Z,78.25
2019-02-23T20:10:24.378Z,78.93
2019-02-23T20:12:55.135Z,78.41
2019-02-23T20:15:25.903Z,79.26
2019-02-23T20:17:56.661Z,80.85
2019-02-23T20:20:27.435Z,79.25
2019-02-23T20:22:58.193Z,79.64
2019-02-23T20:25:28.973Z,81.29
2019-02-23T20:27:59.750Z,80.46
2019-02-23T20:30:30.516Z,80.20
2019-02-23T20:33:01.274Z,81.37
2019-02-23T20:35:32.203Z,82.10
2019-02-23T20:38:03.109Z,82.58
2019-02-23T20:40:33.868Z,80.44
2019-02-23T20:43:04.649Z,80.94
2019-02-23T20:45:35.418Z,81.58
2019-02-23T20:48:06.180Z,82.94
2019-02-23T20:50:36.951Z,83.45
2019-02-23T20:53:07.703Z,82.61
2019-02-23T20:55:38.486Z,83.28
2019-02-23T20:58:09.242Z,84.24
2019-02-23T21:00:40.035Z,84.57
2019-02-23T21:03:10.798Z,84.16
2019-02-23T21:05:41.564Z,83.40
2019-02-23T21:08:12.335Z,85.07
2019-02-23T21:10:43.086Z,86.45
2019-02-23T21:13:13.840Z,86.44
2019-02-23T21:15:44.611Z,85.50
2019-02-23T21:18:15.385Z,86.46
2019-02-23T21:20:46.172Z,85.79
2019-02-23T21:23:16.927Z,86.64
2019-02-23T21:25:47.689Z,87.62
2019-02-23T21:28:18.445Z,89.64
2019-02-23T21:30:49.217Z,88.48
2019-02-23T21:33:19.973Z,88.44
2019-02-23T21:35:50.838Z,88.15
2019-02-23T21:38:21.602Z,89.48
2019-02-23T21:40:52.436Z,90.62
2019-02-23T21:43:23.205Z,89.70
2019-02-23T21:45:53.958Z,89.64
2019-02-23T21:48:24.752Z,90.37
2019-02-23T21:50:55.701Z,90.51
2019-02-23T21:53:26.613Z,91.19
2019-02-23T21:55:57.454Z,91.19
2019-02-23T21:58:28.194Z,92.53
2019-02-23T22:00:58.981Z,91.46
2019-02-23T22:03:29.739Z,91.72
2019-02-23T22:06:00.530Z,92.35
2019-02-23T22:08:31.302Z,94.41
2019-02-23T22:11:02.070Z,95.30
2019-02-23T22:13:32.844Z,94.52
2019-02-23T22:16:04.362Z,95.74
2019-02-23T22:18:35.528Z,95.87
2019-02-23T22:21:06.299Z,95.65
2019-02-23T22:23:37.207Z,95.56
2019-02-23T22:26:08.236Z,95.30
2019-02-23T22:28:38.997Z,94.97
2019-02-23T22:31:09.830Z,95.37
2019-02-23T22:33:41.110Z,96.23
2019-02-23T22:36:11.882Z,95.98
2019-02-23T22:38:42.666Z,96.82
2019-02-23T22:41:13.498Z,97.32
2019-02-23T22:43:44.264Z,98.75
2019-02-23T22:46:15.081Z,99.42
2019-02-23T22:48:45.849Z,99.76
2019-02-23T22:51:16.623Z,98.84
2019-02-23T22:53:47.399Z,98.92
2019-02-23T22:56:18.158Z,97.09
2019-02-23T22:58:49.050Z,98.47
2019-02-23T23:01:20.094Z,98.25
2019-02-23T23:03:50.976Z,99.39
2019-02-23T23:06:21.737Z,98.48
2019-02-23T23:08:52.500Z,98.28
2019-02-23T23:11:23.406Z,97.85
2019-02-23T23:13:54.273Z,98.96
2019-02-23T23:16:25.078Z,99.19
2019-02-23T23:18:55.836Z,98.59
2019-02-23T23:21:26.599Z,98.75
2019-02-23T23:23:57.382Z,100.00
2019-02-23T23:26:28.133Z,100.00
2019-02-23T23:28:58.923Z,100.00
2019-02-23T23:31:29.687Z,99.93
2019-02-23T23:34:00.471Z,98.21
2019-02-23T23:36:31.248Z,99.43
2019-02-23T23:39:03.912Z,98.83
2019-02-23T23:41:34.682Z,98.96
2019-02-23T23:44:05.441Z,100.00
2019-02-23T23:46:36.255Z,99.76
2019-02-23T23:49:06.978Z,100.00
2019-02-23T23:51:37.761Z,100.00
2019-02-23T23:54:08.548Z,100.00
2019-02-23T23:56:39.308Z,100.00
2019-02-23T23:59:10.082Z,100.00
